Time;durP1;ratioP1;P1;durP2;ratioP2;P2;SDS_P1;SDS_P2;PMS_P1;PMS_P2;Temp;Humidity;BMP_temperature;BMP_pressure;BME280_temperature;BME280_humidity;BME280_pressure;Samples;Min_cycle;Max_cycle;Signal;HPM_P1;HPM_P2
2022/03/07 00:02:43;;;;;;;20.90;9.18;;;-0.20;99.90;;;;;;20674583;28;20492;-72
2022/03/07 00:12:44;;;;;;;22.40;8.98;;;-0.10;99.90;;;;;;20673941;28;20030;-72
2022/03/07 00:22:45;;;;;;;19.58;8.13;;;-0.20;99.90;;;;;;20686838;28;20584;-72
2022/03/07 00:32:46;;;;;;;20.50;8.38;;;-0.50;99.90;;;;;;20672345;28;20088;-72
2022/03/07 00:42:47;;;;;;;18.92;8.40;;;-0.50;99.90;;;;;;20671464;28;20031;-72
2022/03/07 00:52:48;;;;;;;20.55;8.77;;;-0.50;99.90;;;;;;20670894;28;20463;-72
2022/03/07 01:02:48;;;;;;;21.15;9.35;;;-0.40;99.90;;;;;;20652565;28;20041;-72
2022/03/07 01:12:50;;;;;;;16.20;8.20;;;-0.40;99.90;;;;;;20669144;28;20044;-72
2022/03/07 01:22:51;;;;;;;17.58;8.68;;;-0.50;99.90;;;;;;20667275;28;20034;-72
2022/03/07 01:32:55;;;;;;;17.13;8.48;;;-0.50;99.90;;;;;;20666301;28;20030;-72
2022/03/07 01:42:56;;;;;;;19.58;8.38;;;-0.70;99.90;;;;;;20736263;23;20040;-75
2022/03/07 01:52:57;;;;;;;21.42;8.27;;;-0.70;99.90;;;;;;21073515;28;20039;-74
2022/03/07 02:03:01;;;;;;;16.67;7.45;;;-0.80;99.90;;;;;;21075037;28;20421;-74
2022/03/07 02:13:17;;;;;;;15.98;7.95;;;-0.80;99.90;;;;;;21067311;28;20075;-75
2022/03/07 02:23:24;;;;;;;14.60;8.10;;;-0.80;99.90;;;;;;21065520;28;20119;-75
2022/03/07 02:33:24;;;;;;;18.35;8.93;;;-0.70;99.90;;;;;;21046121;28;20039;-77
2022/03/07 02:43:26;;;;;;;18.35;8.38;;;-0.80;99.90;;;;;;21059211;28;20494;-76
2022/03/07 02:53:27;;;;;;;16.30;8.77;;;-0.70;99.90;;;;;;21078291;28;20028;-77
2022/03/07 03:03:28;;;;;;;15.48;8.63;;;-0.80;99.90;;;;;;21077613;28;20058;-77
2022/03/07 03:13:29;;;;;;;22.73;8.73;;;-0.90;99.90;;;;;;21105856;28;20028;-77
2022/03/07 03:23:30;;;;;;;17.38;8.50;;;-0.90;99.90;;;;;;21141796;28;20481;-77
2022/03/07 03:33:31;;;;;;;13.23;8.05;;;-0.90;99.90;;;;;;21161054;28;20035;-77
2022/03/07 03:43:31;;;;;;;19.60;9.48;;;-1.00;99.90;;;;;;21099533;28;20033;-78
2022/03/07 03:53:32;;;;;;;17.45;8.20;;;-1.10;99.90;;;;;;21061843;28;20118;-76
2022/03/07 04:03:33;;;;;;;17.35;9.13;;;-1.20;99.90;;;;;;21095133;28;20021;-77
2022/03/07 04:13:34;;;;;;;15.25;8.43;;;-1.20;99.90;;;;;;21136058;28;20032;-77
2022/03/07 04:23:35;;;;;;;14.77;7.97;;;-1.10;99.90;;;;;;21172791;28;20557;-77
2022/03/07 04:33:35;;;;;;;14.45;8.30;;;-1.20;99.90;;;;;;21150491;28;20027;-77
2022/03/07 04:43:36;;;;;;;20.42;10.27;;;-1.40;99.90;;;;;;21088940;28;20027;-80
2022/03/07 04:53:37;;;;;;;22.10;9.35;;;-1.40;99.90;;;;;;21050340;28;20039;-80
2022/03/07 05:03:38;;;;;;;18.13;9.40;;;-1.40;99.90;;;;;;21108196;28;20039;-80
2022/03/07 05:13:39;;;;;;;18.60;9.10;;;-1.50;99.90;;;;;;21087669;28;20097;-80
2022/03/07 05:23:39;;;;;;;19.83;9.25;;;-1.60;99.90;;;;;;21074040;28;20031;-78
2022/03/07 05:33:41;;;;;;;16.95;9.57;;;-1.70;99.90;;;;;;21087538;28;20028;-75
2022/03/07 05:43:41;;;;;;;17.33;10.30;;;-2.10;99.90;;;;;;21096044;28;20024;-77
2022/03/07 05:53:42;;;;;;;19.85;9.68;;;-2.20;99.90;;;;;;21068746;28;20034;-78
2022/03/07 06:03:44;;;;;;;20.60;10.60;;;-2.40;99.90;;;;;;21094009;28;20020;-78
2022/03/07 06:13:46;;;;;;;23.98;10.30;;;-2.40;99.90;;;;;;21090955;28;20028;-78
2022/03/07 06:23:46;;;;;;;17.90;10.65;;;-2.30;99.90;;;;;;21078913;28;20111;-76
2022/03/07 06:33:47;;;;;;;21.52;10.07;;;-2.20;99.90;;;;;;21086363;28;20036;-77
2022/03/07 06:43:48;;;;;;;23.30;10.43;;;-1.80;99.90;;;;;;21061322;28;20387;-78
2022/03/07 06:53:49;;;;;;;21.23;10.65;;;-1.30;99.90;;;;;;21061160;28;20032;-78
2022/03/07 07:03:50;;;;;;;26.98;14.05;;;-0.70;99.90;;;;;;21079243;28;20024;-75
2022/03/07 07:13:51;;;;;;;23.60;11.70;;;0.00;99.90;;;;;;21078894;28;20051;-77
2022/03/07 07:23:51;;;;;;;22.52;11.82;;;0.90;99.90;;;;;;21078199;28;20081;-78
2022/03/07 07:33:52;;;;;;;22.67;11.30;;;1.60;99.90;;;;;;21089118;28;20051;-77
2022/03/07 07:43:53;;;;;;;21.38;11.35;;;2.30;99.90;;;;;;21066291;22;20045;-72
2022/03/07 07:53:54;;;;;;;;;;;2.50;99.90;;;;;;20820118;28;20022;-72
2022/03/07 08:03:55;;;;;;;24.83;11.80;;;2.70;99.90;;;;;;20756162;28;19917;-73
2022/03/07 08:13:56;;;;;;;26.77;11.77;;;3.60;99.90;;;;;;20753987;28;20660;-73
2022/03/07 08:23:57;;;;;;;21.38;11.93;;;3.70;99.90;;;;;;20754677;28;20065;-73
2022/03/07 08:33:57;;;;;;;22.30;12.00;;;4.30;99.90;;;;;;20736451;28;20396;-73
2022/03/07 08:43:58;;;;;;;21.10;12.30;;;3.80;99.90;;;;;;20751812;28;20103;-73
2022/03/07 08:53:59;;;;;;;22.13;12.60;;;4.00;99.90;;;;;;20752147;28;20273;-72
2022/03/07 09:04:00;;;;;;;22.70;12.77;;;4.50;99.90;;;;;;20751518;28;20272;-73
2022/03/07 09:14:01;;;;;;;21.27;12.00;;;5.20;99.90;;;;;;20750640;28;20053;-73
2022/03/07 09:24:03;;;;;;;21.02;11.65;;;6.20;99.90;;;;;;20749750;28;20072;-73
2022/03/07 09:34:04;;;;;;;;;;;6.20;99.90;;;;;;20749380;28;20069;-73
2022/03/07 09:44:05;;;;;;;21.40;12.85;;;6.40;99.90;;;;;;20748236;28;19914;-73
2022/03/07 09:54:06;;;;;;;19.67;11.87;;;6.80;99.90;;;;;;20747338;28;20652;-73
2022/03/07 10:04:11;;;;;;;34.90;19.10;;;7.10;99.90;;;;;;20729310;28;20073;-73
2022/03/07 10:14:12;;;;;;;21.45;12.73;;;7.50;99.90;;;;;;20728519;28;20034;-73
2022/03/07 10:24:13;;;;;;;20.90;12.10;;;7.90;99.90;;;;;;20745469;28;20069;-73
2022/03/07 10:34:14;;;;;;;22.42;12.23;;;7.50;99.90;;;;;;20744740;28;20295;-74
2022/03/07 10:44:24;;;;;;;33.13;13.30;;;7.70;99.90;;;;;;20726551;28;20128;-73
2022/03/07 10:54:25;;;;;;;21.00;12.95;;;8.20;99.90;;;;;;20742615;28;20045;-74
2022/03/07 11:04:26;;;;;;;22.20;12.57;;;9.00;99.90;;;;;;20749289;28;20029;-73
2022/03/07 11:14:28;;;;;;;18.80;12.37;;;8.80;99.90;;;;;;20769785;28;20635;-73
2022/03/07 11:24:30;;;;;;;;;;;9.10;99.90;;;;;;20769857;28;20404;-73
2022/03/07 11:34:31;;;;;;;25.63;13.20;;;8.70;99.90;;;;;;20769055;28;19920;-73
2022/03/07 11:44:32;;;;;;;25.20;14.10;;;9.30;98.90;;;;;;20768691;28;20484;-74
2022/03/07 11:54:33;;;;;;;21.13;12.83;;;9.60;99.90;;;;;;20768262;28;20033;-74
2022/03/07 12:04:44;;;;;;;22.10;13.47;;;9.80;98.60;;;;;;20768136;28;20396;-74
2022/03/07 12:14:47;;;;;;;20.50;12.97;;;9.70;97.20;;;;;;20766210;28;20038;-74
2022/03/07 12:24:47;;;;;;;23.25;12.63;;;9.70;98.00;;;;;;20755515;28;20515;-74
2022/03/07 12:34:49;;;;;;;28.13;12.77;;;10.30;96.40;;;;;;20753606;28;20069;-74
2022/03/07 12:44:50;;;;;;;;;;;10.20;97.10;;;;;;20753463;28;20046;-74
2022/03/07 12:54:52;;;;;;;19.67;12.43;;;10.30;96.10;;;;;;20752069;28;19920;-74
2022/03/07 13:04:53;;;;;;;;;;;10.50;96.10;;;;;;20734221;28;20033;-73
2022/03/07 13:14:59;;;;;;;19.13;12.52;;;10.60;96.00;;;;;;20755593;28;20007;-73
2022/03/07 13:25:00;;;;;;;21.13;12.65;;;10.90;94.90;;;;;;20823175;28;20117;-73
2022/03/07 13:35:01;;;;;;;19.87;12.50;;;10.40;95.10;;;;;;20830320;28;20060;-73
2022/03/07 13:45:05;;;;;;;25.33;14.57;;;10.70;94.00;;;;;;20924612;22;20059;-82
2022/03/07 13:55:09;;;;;;;27.95;13.18;;;9.90;94.20;;;;;;21063845;28;20508;-81
2022/03/07 14:05:11;;;;;;;22.88;12.50;;;10.60;93.50;;;;;;20985367;28;20034;-80
2022/03/07 14:15:12;;;;;;;21.98;12.05;;;10.30;93.70;;;;;;20982880;28;20043;-81
2022/03/07 14:25:13;;;;;;;22.10;13.17;;;10.50;92.90;;;;;;20982834;28;20028;-81
2022/03/07 14:35:14;;;;;;;14.80;9.63;;;10.30;92.70;;;;;;20984742;28;20029;-81
2022/03/07 14:45:17;;;;;;;22.83;12.77;;;9.80;94.10;;;;;;20990103;28;20122;-80
2022/03/07 14:55:21;;;;;;;20.15;12.43;;;9.70;93.60;;;;;;20975077;28;20119;-81
2022/03/07 15:05:22;;;;;;;23.70;12.23;;;9.70;93.90;;;;;;20952959;28;20094;-81
2022/03/07 15:15:26;;;;;;;22.07;12.80;;;8.90;94.30;;;;;;20986688;28;20028;-82
2022/03/07 15:25:28;;;;;;;21.83;12.10;;;9.40;94.00;;;;;;20946482;28;20055;-82
2022/03/07 15:35:28;;;;;;;;;;;9.70;93.50;;;;;;20982217;28;20033;-82
2022/03/07 15:45:29;;;;;;;19.42;11.95;;;9.30;93.60;;;;;;20979601;28;19912;-82
2022/03/07 15:55:30;;;;;;;20.37;12.60;;;9.10;93.90;;;;;;20973165;28;20037;-81
2022/03/07 16:05:31;;;;;;;17.47;9.13;;;8.10;93.80;;;;;;20977571;28;20037;-81
2022/03/07 16:15:32;;;;;;;24.90;12.83;;;7.80;94.20;;;;;;20977181;28;20090;-81
2022/03/07 16:25:33;;;;;;;24.13;12.27;;;6.80;95.30;;;;;;20983165;28;20033;-79
2022/03/07 16:35:34;;;;;;;20.33;11.40;;;6.20;96.40;;;;;;20995144;28;20043;-80
2022/03/07 16:45:36;;;;;;;21.83;11.77;;;5.90;97.50;;;;;;21007372;28;20044;-80
2022/03/07 16:55:37;;;;;;;25.83;12.52;;;5.50;97.60;;;;;;21021823;28;20102;-80
2022/03/07 17:05:38;;;;;;;25.23;12.05;;;5.30;97.90;;;;;;20973894;28;20085;-80
2022/03/07 17:15:39;;;;;;;26.70;12.32;;;4.90;99.00;;;;;;20978909;28;20452;-80
2022/03/07 17:25:40;;;;;;;23.13;13.33;;;4.50;99.90;;;;;;20982244;28;20036;-79
2022/03/07 17:35:41;;;;;;;26.35;13.48;;;4.10;99.90;;;;;;20974000;28;20036;-79
2022/03/07 17:45:42;;;;;;;23.52;12.85;;;3.80;99.90;;;;;;20973184;28;20135;-80
2022/03/07 17:55:43;;;;;;;25.75;12.50;;;3.50;99.90;;;;;;21001218;28;20882;-80
2022/03/07 18:05:44;;;;;;;23.60;13.05;;;3.30;99.90;;;;;;20988105;28;20580;-78
2022/03/07 18:15:45;;;;;;;;;;;3.10;99.90;;;;;;20963368;28;20044;-79
2022/03/07 18:25:47;;;;;;;38.72;13.60;;;2.80;99.90;;;;;;20981910;28;19913;-78
2022/03/07 18:35:47;;;;;;;27.40;13.80;;;2.60;99.90;;;;;;20975397;28;20032;-78
2022/03/07 18:45:49;;;;;;;30.63;13.98;;;2.30;99.90;;;;;;20965032;28;20117;-79
2022/03/07 18:55:50;;;;;;;28.05;14.25;;;2.20;99.90;;;;;;21008018;28;20127;-79
2022/03/07 19:05:51;;;;;;;30.98;13.50;;;2.00;99.90;;;;;;20980996;28;20152;-77
2022/03/07 19:15:52;;;;;;;29.67;14.82;;;1.90;99.90;;;;;;20980718;28;20039;-79
2022/03/07 19:25:53;;;;;;;28.25;14.93;;;1.70;99.90;;;;;;20984001;28;20028;-79
2022/03/07 19:35:55;;;;;;;38.30;16.83;;;1.50;99.90;;;;;;20981126;28;20125;-80
2022/03/07 19:45:56;;;;;;;35.08;15.30;;;1.30;99.90;;;;;;20973936;22;20048;-72
2022/03/07 19:55:58;;;;;;;34.60;16.23;;;1.10;99.90;;;;;;20942708;28;20040;-71
2022/03/07 20:05:59;;;;;;;32.28;15.95;;;1.00;99.90;;;;;;20900753;28;20033;-71
2022/03/07 20:16:00;;;;;;;31.83;15.32;;;0.80;99.90;;;;;;20899943;28;20028;-72
2022/03/07 20:26:01;;;;;;;33.72;17.02;;;0.70;99.90;;;;;;20928714;28;20640;-71
2022/03/07 20:36:03;;;;;;;34.22;15.70;;;0.50;99.90;;;;;;20979496;28;20035;-71
2022/03/07 20:46:04;;;;;;;34.17;16.15;;;0.40;99.90;;;;;;20980455;28;20036;-71
2022/03/07 20:56:05;;;;;;;36.25;16.48;;;0.20;99.90;;;;;;20936387;28;20170;-71
2022/03/07 21:06:06;;;;;;;45.40;16.70;;;0.20;99.90;;;;;;20975598;28;20041;-71
2022/03/07 21:16:07;;;;;;;30.73;15.02;;;0.00;99.90;;;;;;20976206;28;20297;-73
2022/03/07 21:26:09;;;;;;;37.83;16.73;;;-0.10;99.90;;;;;;20977408;28;20046;-73
2022/03/07 21:36:12;;;;;;;36.65;16.23;;;-0.10;99.90;;;;;;20976313;28;20139;-73
2022/03/07 21:46:13;;;;;;;35.80;15.93;;;-0.20;99.90;;;;;;20975402;28;20067;-73
2022/03/07 21:56:14;;;;;;;35.95;15.18;;;-0.30;99.90;;;;;;20931837;28;20131;-74
2022/03/07 22:06:15;;;;;;;36.83;16.05;;;-0.40;99.90;;;;;;20949173;28;20724;-74
2022/03/07 22:16:15;;;;;;;35.95;15.90;;;-0.40;99.90;;;;;;20948332;28;20033;-74
2022/03/07 22:26:16;;;;;;;34.10;15.70;;;-0.40;99.90;;;;;;20952268;28;20025;-74
2022/03/07 22:36:17;;;;;;;37.35;15.95;;;-0.50;99.90;;;;;;20947123;28;20025;-73
2022/03/07 22:46:18;;;;;;;40.10;16.05;;;-0.50;99.90;;;;;;20946810;28;20029;-73
2022/03/07 22:56:19;;;;;;;33.53;15.35;;;-0.50;99.90;;;;;;20950039;28;20083;-73
2022/03/07 23:16:40;;;;;;;33.95;15.68;;;-0.60;99.90;;;;;;20946677;28;20032;-73
2022/03/07 23:26:40;;;;;;;41.30;16.52;;;-0.60;99.90;;;;;;20981364;28;20098;-73
2022/03/07 23:36:41;;;;;;;37.20;15.90;;;-0.70;99.90;;;;;;20988101;28;20081;-73
2022/03/07 23:46:43;;;;;;;36.65;16.10;;;-0.80;99.90;;;;;;20987547;28;20035;-73
2022/03/07 23:56:43;;;;;;;38.47;17.05;;;-0.90;99.90;;;;;;20988592;28;20032;-73
